sensor_id;sensor_type;location;lat;lon;timestamp;P1;durP1;ratioP1;P2;durP2;ratioP2
28509;SDS011;15723;55.684;37.928;2022-10-19T00:02:14;7.32;;;3.67;;
28509;SDS011;15723;55.684;37.928;2022-10-19T00:04:42;6.47;;;3.53;;
28509;SDS011;15723;55.684;37.928;2022-10-19T00:07:09;5.53;;;3.67;;
28509;SDS011;15723;55.684;37.928;2022-10-19T00:09:35;6.97;;;4.05;;
28509;SDS011;15723;55.684;37.928;2022-10-19T00:12:01;6.07;;;4.03;;
28509;SDS011;15723;55.684;37.928;2022-10-19T00:14:28;8.40;;;3.40;;
28509;SDS011;15723;55.684;37.928;2022-10-19T00:16:54;4.80;;;3.53;;
28509;SDS011;15723;55.684;37.928;2022-10-19T00:19:23;5.80;;;3.13;;
28509;SDS011;15723;55.684;37.928;2022-10-19T00:21:51;9.55;;;3.97;;
28509;SDS011;15723;55.684;37.928;2022-10-19T00:24:17;7.90;;;4.75;;
28509;SDS011;15723;55.684;37.928;2022-10-19T00:26:44;10.98;;;5.00;;
28509;SDS011;15723;55.684;37.928;2022-10-19T00:29:12;8.80;;;5.90;;
28509;SDS011;15723;55.684;37.928;2022-10-19T00:31:39;9.85;;;6.00;;
28509;SDS011;15723;55.684;37.928;2022-10-19T00:34:05;10.52;;;5.55;;
28509;SDS011;15723;55.684;37.928;2022-10-19T00:36:33;7.40;;;5.00;;
28509;SDS011;15723;55.684;37.928;2022-10-19T00:39:03;10.15;;;3.92;;
28509;SDS011;15723;55.684;37.928;2022-10-19T00:41:32;6.50;;;2.80;;
28509;SDS011;15723;55.684;37.928;2022-10-19T00:46:40;6.60;;;3.38;;
28509;SDS011;15723;55.684;37.928;2022-10-19T00:51:45;6.03;;;2.78;;
28509;SDS011;15723;55.684;37.928;2022-10-19T00:54:16;5.65;;;2.53;;
28509;SDS011;15723;55.684;37.928;2022-10-19T00:56:43;8.32;;;3.75;;
28509;SDS011;15723;55.684;37.928;2022-10-19T00:59:13;7.85;;;3.00;;
28509;SDS011;15723;55.684;37.928;2022-10-19T01:01:42;7.75;;;3.25;;
28509;SDS011;15723;55.684;37.928;2022-10-19T01:04:10;8.15;;;4.55;;
28509;SDS011;15723;55.684;37.928;2022-10-19T01:06:37;7.82;;;3.38;;
28509;SDS011;15723;55.684;37.928;2022-10-19T01:09:05;4.38;;;3.10;;
28509;SDS011;15723;55.684;37.928;2022-10-19T01:11:38;5.97;;;3.17;;
28509;SDS011;15723;55.684;37.928;2022-10-19T01:20:16;6.57;;;3.53;;
28509;SDS011;15723;55.684;37.928;2022-10-19T01:26:08;6.53;;;4.25;;
28509;SDS011;15723;55.684;37.928;2022-10-19T01:31:47;5.40;;;3.60;;
28509;SDS011;15723;55.684;37.928;2022-10-19T01:37:19;12.45;;;4.65;;
28509;SDS011;15723;55.684;37.928;2022-10-19T01:42:28;4.18;;;3.47;;
28509;SDS011;15723;55.684;37.928;2022-10-19T01:48:14;6.85;;;4.10;;
28509;SDS011;15723;55.684;37.928;2022-10-19T01:51:05;5.88;;;4.07;;
28509;SDS011;15723;55.684;37.928;2022-10-19T01:53:41;4.75;;;3.70;;
28509;SDS011;15723;55.684;37.928;2022-10-19T01:56:12;6.00;;;3.60;;
28509;SDS011;15723;55.684;37.928;2022-10-19T01:58:43;6.95;;;4.60;;
28509;SDS011;15723;55.684;37.928;2022-10-19T02:01:11;7.78;;;5.07;;
28509;SDS011;15723;55.684;37.928;2022-10-19T02:03:41;5.35;;;4.03;;
28509;SDS011;15723;55.684;37.928;2022-10-19T02:06:08;4.55;;;3.38;;
28509;SDS011;15723;55.684;37.928;2022-10-19T02:08:38;5.80;;;3.70;;
28509;SDS011;15723;55.684;37.928;2022-10-19T02:11:08;6.70;;;4.03;;
28509;SDS011;15723;55.684;37.928;2022-10-19T02:13:35;4.45;;;3.78;;
28509;SDS011;15723;55.684;37.928;2022-10-19T02:16:04;5.25;;;3.67;;
28509;SDS011;15723;55.684;37.928;2022-10-19T02:18:39;8.23;;;3.75;;
28509;SDS011;15723;55.684;37.928;2022-10-19T02:21:10;6.60;;;4.20;;
28509;SDS011;15723;55.684;37.928;2022-10-19T02:23:36;5.15;;;3.22;;
28509;SDS011;15723;55.684;37.928;2022-10-19T02:26:03;10.00;;;4.40;;
28509;SDS011;15723;55.684;37.928;2022-10-19T02:28:30;5.90;;;4.10;;
28509;SDS011;15723;55.684;37.928;2022-10-19T02:30:57;7.03;;;4.47;;
28509;SDS011;15723;55.684;37.928;2022-10-19T02:33:25;10.20;;;4.53;;
28509;SDS011;15723;55.684;37.928;2022-10-19T02:35:53;7.43;;;4.15;;
28509;SDS011;15723;55.684;37.928;2022-10-19T02:38:21;8.38;;;4.88;;
28509;SDS011;15723;55.684;37.928;2022-10-19T02:41:01;5.25;;;4.70;;
28509;SDS011;15723;55.684;37.928;2022-10-19T02:43:35;7.95;;;4.60;;
28509;SDS011;15723;55.684;37.928;2022-10-19T02:46:15;6.20;;;4.28;;
28509;SDS011;15723;55.684;37.928;2022-10-19T02:48:48;7.88;;;5.38;;
28509;SDS011;15723;55.684;37.928;2022-10-19T02:54:03;6.72;;;5.00;;
28509;SDS011;15723;55.684;37.928;2022-10-19T02:56:33;9.55;;;5.45;;
28509;SDS011;15723;55.684;37.928;2022-10-19T02:59:00;11.52;;;6.70;;
28509;SDS011;15723;55.684;37.928;2022-10-19T03:01:27;7.30;;;5.68;;
28509;SDS011;15723;55.684;37.928;2022-10-19T03:03:54;9.63;;;5.43;;
28509;SDS011;15723;55.684;37.928;2022-10-19T03:06:20;15.75;;;5.82;;
28509;SDS011;15723;55.684;37.928;2022-10-19T03:08:46;13.63;;;6.25;;
28509;SDS011;15723;55.684;37.928;2022-10-19T03:11:13;8.68;;;5.53;;
28509;SDS011;15723;55.684;37.928;2022-10-19T03:13:40;11.13;;;5.15;;
28509;SDS011;15723;55.684;37.928;2022-10-19T03:16:07;8.55;;;5.20;;
28509;SDS011;15723;55.684;37.928;2022-10-19T03:18:36;9.80;;;5.13;;
28509;SDS011;15723;55.684;37.928;2022-10-19T03:21:06;7.80;;;3.55;;
28509;SDS011;15723;55.684;37.928;2022-10-19T03:23:36;7.22;;;4.28;;
28509;SDS011;15723;55.684;37.928;2022-10-19T03:26:04;8.77;;;4.00;;
28509;SDS011;15723;55.684;37.928;2022-10-19T03:28:31;8.05;;;4.40;;
28509;SDS011;15723;55.684;37.928;2022-10-19T03:30:58;7.85;;;4.43;;
28509;SDS011;15723;55.684;37.928;2022-10-19T03:33:24;7.75;;;4.32;;
28509;SDS011;15723;55.684;37.928;2022-10-19T03:36:11;6.95;;;4.40;;
28509;SDS011;15723;55.684;37.928;2022-10-19T03:38:55;4.35;;;3.50;;
28509;SDS011;15723;55.684;37.928;2022-10-19T03:41:23;11.70;;;9.90;;
28509;SDS011;15723;55.684;37.928;2022-10-19T03:43:51;12.73;;;10.85;;
28509;SDS011;15723;55.684;37.928;2022-10-19T03:46:17;10.05;;;7.80;;
28509;SDS011;15723;55.684;37.928;2022-10-19T03:48:44;10.88;;;7.20;;
28509;SDS011;15723;55.684;37.928;2022-10-19T03:51:12;9.20;;;7.18;;
28509;SDS011;15723;55.684;37.928;2022-10-19T03:53:40;10.85;;;7.32;;
28509;SDS011;15723;55.684;37.928;2022-10-19T03:56:11;16.73;;;14.85;;
28509;SDS011;15723;55.684;37.928;2022-10-19T03:58:43;18.40;;;16.00;;
28509;SDS011;15723;55.684;37.928;2022-10-19T04:01:12;18.55;;;15.85;;
28509;SDS011;15723;55.684;37.928;2022-10-19T04:03:44;14.73;;;12.45;;
28509;SDS011;15723;55.684;37.928;2022-10-19T04:06:14;7.47;;;5.20;;
28509;SDS011;15723;55.684;37.928;2022-10-19T04:08:43;9.50;;;4.47;;
28509;SDS011;15723;55.684;37.928;2022-10-19T04:11:13;4.57;;;3.65;;
28509;SDS011;15723;55.684;37.928;2022-10-19T04:13:41;6.57;;;3.50;;
28509;SDS011;15723;55.684;37.928;2022-10-19T04:16:08;6.75;;;3.58;;
28509;SDS011;15723;55.684;37.928;2022-10-19T04:18:38;8.35;;;3.47;;
28509;SDS011;15723;55.684;37.928;2022-10-19T04:21:04;7.25;;;3.53;;
28509;SDS011;15723;55.684;37.928;2022-10-19T04:23:32;5.68;;;4.20;;
28509;SDS011;15723;55.684;37.928;2022-10-19T04:26:05;8.95;;;3.80;;
28509;SDS011;15723;55.684;37.928;2022-10-19T04:28:33;5.40;;;4.00;;
28509;SDS011;15723;55.684;37.928;2022-10-19T04:31:03;5.78;;;4.28;;
28509;SDS011;15723;55.684;37.928;2022-10-19T04:33:31;5.50;;;3.50;;
28509;SDS011;15723;55.684;37.928;2022-10-19T04:35:59;5.78;;;3.97;;
28509;SDS011;15723;55.684;37.928;2022-10-19T04:38:30;7.05;;;4.55;;
28509;SDS011;15723;55.684;37.928;2022-10-19T04:41:00;5.68;;;4.30;;
28509;SDS011;15723;55.684;37.928;2022-10-19T04:43:28;6.03;;;4.95;;
28509;SDS011;15723;55.684;37.928;2022-10-19T04:45:55;8.30;;;5.22;;
28509;SDS011;15723;55.684;37.928;2022-10-19T04:48:21;7.07;;;5.65;;
28509;SDS011;15723;55.684;37.928;2022-10-19T04:50:48;8.95;;;5.38;;
28509;SDS011;15723;55.684;37.928;2022-10-19T04:53:18;9.15;;;5.63;;
28509;SDS011;15723;55.684;37.928;2022-10-19T04:55:45;12.10;;;6.88;;
28509;SDS011;15723;55.684;37.928;2022-10-19T04:58:11;6.65;;;5.95;;
28509;SDS011;15723;55.684;37.928;2022-10-19T05:00:37;7.93;;;6.80;;
28509;SDS011;15723;55.684;37.928;2022-10-19T05:03:04;9.60;;;5.72;;
28509;SDS011;15723;55.684;37.928;2022-10-19T05:05:31;8.85;;;6.30;;
28509;SDS011;15723;55.684;37.928;2022-10-19T05:07:57;7.32;;;6.45;;
28509;SDS011;15723;55.684;37.928;2022-10-19T05:10:24;9.63;;;6.20;;
28509;SDS011;15723;55.684;37.928;2022-10-19T05:12:50;8.90;;;6.57;;
28509;SDS011;15723;55.684;37.928;2022-10-19T05:15:16;8.00;;;6.30;;
28509;SDS011;15723;55.684;37.928;2022-10-19T05:17:42;21.23;;;14.50;;
28509;SDS011;15723;55.684;37.928;2022-10-19T05:20:09;18.42;;;13.30;;
28509;SDS011;15723;55.684;37.928;2022-10-19T05:22:38;17.17;;;11.70;;
28509;SDS011;15723;55.684;37.928;2022-10-19T05:25:05;12.55;;;8.57;;
28509;SDS011;15723;55.684;37.928;2022-10-19T05:27:32;14.55;;;8.40;;
28509;SDS011;15723;55.684;37.928;2022-10-19T05:29:58;10.32;;;7.68;;
28509;SDS011;15723;55.684;37.928;2022-10-19T05:32:25;26.88;;;8.15;;
28509;SDS011;15723;55.684;37.928;2022-10-19T05:34:52;31.33;;;9.23;;
28509;SDS011;15723;55.684;37.928;2022-10-19T05:37:18;28.75;;;8.93;;
28509;SDS011;15723;55.684;37.928;2022-10-19T05:39:46;31.42;;;9.88;;
28509;SDS011;15723;55.684;37.928;2022-10-19T05:42:12;14.10;;;8.30;;
28509;SDS011;15723;55.684;37.928;2022-10-19T05:44:38;15.23;;;8.07;;
28509;SDS011;15723;55.684;37.928;2022-10-19T05:47:05;14.25;;;7.82;;
28509;SDS011;15723;55.684;37.928;2022-10-19T05:49:31;15.13;;;8.55;;
28509;SDS011;15723;55.684;37.928;2022-10-19T05:51:57;9.25;;;6.60;;
28509;SDS011;15723;55.684;37.928;2022-10-19T05:54:24;10.32;;;6.72;;
28509;SDS011;15723;55.684;37.928;2022-10-19T05:56:50;7.45;;;5.32;;
28509;SDS011;15723;55.684;37.928;2022-10-19T05:59:17;6.78;;;4.85;;
28509;SDS011;15723;55.684;37.928;2022-10-19T06:01:45;9.25;;;6.13;;
28509;SDS011;15723;55.684;37.928;2022-10-19T06:04:12;10.60;;;9.57;;
28509;SDS011;15723;55.684;37.928;2022-10-19T06:06:40;16.80;;;10.48;;
28509;SDS011;15723;55.684;37.928;2022-10-19T06:09:08;11.00;;;9.20;;
28509;SDS011;15723;55.684;37.928;2022-10-19T06:11:37;16.13;;;13.60;;
28509;SDS011;15723;55.684;37.928;2022-10-19T06:14:07;13.85;;;12.00;;
28509;SDS011;15723;55.684;37.928;2022-10-19T06:16:38;14.47;;;10.83;;
28509;SDS011;15723;55.684;37.928;2022-10-19T06:19:04;17.70;;;15.90;;
28509;SDS011;15723;55.684;37.928;2022-10-19T06:21:31;20.05;;;17.92;;
28509;SDS011;15723;55.684;37.928;2022-10-19T06:24:00;22.67;;;20.25;;
28509;SDS011;15723;55.684;37.928;2022-10-19T06:26:29;18.48;;;16.58;;
28509;SDS011;15723;55.684;37.928;2022-10-19T06:28:57;14.98;;;12.80;;
28509;SDS011;15723;55.684;37.928;2022-10-19T06:31:28;18.33;;;13.52;;
28509;SDS011;15723;55.684;37.928;2022-10-19T06:33:56;17.63;;;13.80;;
28509;SDS011;15723;55.684;37.928;2022-10-19T06:36:24;13.93;;;9.85;;
28509;SDS011;15723;55.684;37.928;2022-10-19T06:38:53;13.48;;;9.55;;
28509;SDS011;15723;55.684;37.928;2022-10-19T06:41:21;9.85;;;7.80;;
28509;SDS011;15723;55.684;37.928;2022-10-19T06:43:49;9.23;;;7.22;;
28509;SDS011;15723;55.684;37.928;2022-10-19T06:46:20;11.35;;;7.93;;
28509;SDS011;15723;55.684;37.928;2022-10-19T06:48:48;10.30;;;7.38;;
28509;SDS011;15723;55.684;37.928;2022-10-19T06:51:17;8.68;;;6.38;;
28509;SDS011;15723;55.684;37.928;2022-10-19T06:53:43;6.82;;;5.53;;
28509;SDS011;15723;55.684;37.928;2022-10-19T06:56:10;9.27;;;7.40;;
28509;SDS011;15723;55.684;37.928;2022-10-19T06:58:37;7.90;;;6.82;;
28509;SDS011;15723;55.684;37.928;2022-10-19T07:01:04;9.63;;;6.55;;
28509;SDS011;15723;55.684;37.928;2022-10-19T07:03:33;9.13;;;7.28;;
28509;SDS011;15723;55.684;37.928;2022-10-19T07:06:00;10.95;;;6.15;;
28509;SDS011;15723;55.684;37.928;2022-10-19T07:08:29;9.65;;;5.55;;
28509;SDS011;15723;55.684;37.928;2022-10-19T07:10:57;15.30;;;6.88;;
28509;SDS011;15723;55.684;37.928;2022-10-19T07:13:26;10.27;;;6.53;;
28509;SDS011;15723;55.684;37.928;2022-10-19T07:15:59;10.00;;;7.05;;
28509;SDS011;15723;55.684;37.928;2022-10-19T07:18:32;7.95;;;6.22;;
28509;SDS011;15723;55.684;37.928;2022-10-19T07:21:02;9.63;;;5.55;;
28509;SDS011;15723;55.684;37.928;2022-10-19T07:23:31;9.13;;;5.57;;
28509;SDS011;15723;55.684;37.928;2022-10-19T07:26:03;9.10;;;5.90;;
28509;SDS011;15723;55.684;37.928;2022-10-19T07:28:46;9.52;;;5.78;;
28509;SDS011;15723;55.684;37.928;2022-10-19T07:31:14;10.55;;;6.28;;
28509;SDS011;15723;55.684;37.928;2022-10-19T07:33:57;9.30;;;6.10;;
28509;SDS011;15723;55.684;37.928;2022-10-19T07:36:26;7.38;;;5.60;;
28509;SDS011;15723;55.684;37.928;2022-10-19T07:38:53;9.93;;;6.57;;
28509;SDS011;15723;55.684;37.928;2022-10-19T07:41:20;7.35;;;5.45;;
28509;SDS011;15723;55.684;37.928;2022-10-19T07:43:48;12.98;;;5.95;;
28509;SDS011;15723;55.684;37.928;2022-10-19T07:46:16;9.00;;;4.88;;
28509;SDS011;15723;55.684;37.928;2022-10-19T07:48:48;8.70;;;5.13;;
28509;SDS011;15723;55.684;37.928;2022-10-19T07:51:15;6.72;;;4.95;;
28509;SDS011;15723;55.684;37.928;2022-10-19T07:53:42;11.23;;;6.45;;
28509;SDS011;15723;55.684;37.928;2022-10-19T07:56:10;6.95;;;5.65;;
28509;SDS011;15723;55.684;37.928;2022-10-19T07:58:43;9.65;;;6.55;;
28509;SDS011;15723;55.684;37.928;2022-10-19T08:01:10;8.50;;;6.35;;
28509;SDS011;15723;55.684;37.928;2022-10-19T08:03:38;11.25;;;5.80;;
28509;SDS011;15723;55.684;37.928;2022-10-19T08:06:06;8.05;;;6.25;;
28509;SDS011;15723;55.684;37.928;2022-10-19T08:08:34;5.82;;;4.93;;
28509;SDS011;15723;55.684;37.928;2022-10-19T08:11:11;6.63;;;5.63;;
28509;SDS011;15723;55.684;37.928;2022-10-19T08:13:40;9.02;;;7.25;;
28509;SDS011;15723;55.684;37.928;2022-10-19T08:18:55;9.38;;;6.47;;
28509;SDS011;15723;55.684;37.928;2022-10-19T08:21:24;8.82;;;5.78;;
28509;SDS011;15723;55.684;37.928;2022-10-19T08:23:50;10.25;;;7.97;;
28509;SDS011;15723;55.684;37.928;2022-10-19T08:26:16;9.55;;;7.20;;
28509;SDS011;15723;55.684;37.928;2022-10-19T08:28:42;7.38;;;5.78;;
28509;SDS011;15723;55.684;37.928;2022-10-19T08:31:10;9.27;;;5.75;;
28509;SDS011;15723;55.684;37.928;2022-10-19T08:33:40;5.97;;;5.15;;
28509;SDS011;15723;55.684;37.928;2022-10-19T08:36:08;9.38;;;7.15;;
28509;SDS011;15723;55.684;37.928;2022-10-19T08:38:35;6.25;;;5.63;;
28509;SDS011;15723;55.684;37.928;2022-10-19T08:41:03;7.38;;;5.55;;
28509;SDS011;15723;55.684;37.928;2022-10-19T08:49:06;6.10;;;4.97;;
28509;SDS011;15723;55.684;37.928;2022-10-19T08:51:37;5.88;;;4.63;;
28509;SDS011;15723;55.684;37.928;2022-10-19T08:54:06;7.80;;;4.90;;
28509;SDS011;15723;55.684;37.928;2022-10-19T08:56:47;5.32;;;4.50;;
28509;SDS011;15723;55.684;37.928;2022-10-19T09:00:13;8.60;;;5.40;;
28509;SDS011;15723;55.684;37.928;2022-10-19T09:03:25;7.65;;;5.80;;
28509;SDS011;15723;55.684;37.928;2022-10-19T09:06:00;7.57;;;4.95;;
28509;SDS011;15723;55.684;37.928;2022-10-19T09:08:53;6.03;;;4.70;;
28509;SDS011;15723;55.684;37.928;2022-10-19T09:11:22;8.57;;;4.32;;
28509;SDS011;15723;55.684;37.928;2022-10-19T09:16:43;5.88;;;3.67;;
28509;SDS011;15723;55.684;37.928;2022-10-19T09:19:23;4.78;;;3.58;;
28509;SDS011;15723;55.684;37.928;2022-10-19T09:21:55;10.43;;;6.07;;
28509;SDS011;15723;55.684;37.928;2022-10-19T09:27:24;6.75;;;5.45;;
28509;SDS011;15723;55.684;37.928;2022-10-19T09:29:55;16.00;;;6.80;;
28509;SDS011;15723;55.684;37.928;2022-10-19T09:32:24;15.40;;;6.65;;
28509;SDS011;15723;55.684;37.928;2022-10-19T09:35:06;15.20;;;7.38;;
28509;SDS011;15723;55.684;37.928;2022-10-19T09:37:41;17.83;;;7.10;;
28509;SDS011;15723;55.684;37.928;2022-10-19T09:40:17;17.70;;;7.20;;
28509;SDS011;15723;55.684;37.928;2022-10-19T09:42:46;10.50;;;6.93;;
28509;SDS011;15723;55.684;37.928;2022-10-19T09:47:59;12.63;;;7.63;;
28509;SDS011;15723;55.684;37.928;2022-10-19T09:50:28;11.32;;;8.30;;
28509;SDS011;15723;55.684;37.928;2022-10-19T09:52:56;8.90;;;6.78;;
28509;SDS011;15723;55.684;37.928;2022-10-19T10:00:33;10.80;;;7.57;;
28509;SDS011;15723;55.684;37.928;2022-10-19T10:08:39;10.05;;;8.18;;
28509;SDS011;15723;55.684;37.928;2022-10-19T10:11:15;10.60;;;7.28;;
28509;SDS011;15723;55.684;37.928;2022-10-19T10:13:50;9.52;;;7.05;;
28509;SDS011;15723;55.684;37.928;2022-10-19T10:16:19;9.20;;;6.50;;
28509;SDS011;15723;55.684;37.928;2022-10-19T10:18:55;14.88;;;7.55;;
28509;SDS011;15723;55.684;37.928;2022-10-19T10:21:28;12.55;;;7.43;;
28509;SDS011;15723;55.684;37.928;2022-10-19T10:24:05;13.25;;;7.80;;
28509;SDS011;15723;55.684;37.928;2022-10-19T10:26:45;17.17;;;7.95;;
28509;SDS011;15723;55.684;37.928;2022-10-19T10:29:24;16.25;;;9.65;;
28509;SDS011;15723;55.684;37.928;2022-10-19T10:31:58;23.38;;;16.73;;
28509;SDS011;15723;55.684;37.928;2022-10-19T10:34:32;19.17;;;15.07;;
28509;SDS011;15723;55.684;37.928;2022-10-19T10:37:23;21.75;;;15.32;;
28509;SDS011;15723;55.684;37.928;2022-10-19T10:42:50;18.17;;;12.65;;
28509;SDS011;15723;55.684;37.928;2022-10-19T10:45:19;20.85;;;13.88;;
28509;SDS011;15723;55.684;37.928;2022-10-19T10:47:47;21.02;;;15.18;;
28509;SDS011;15723;55.684;37.928;2022-10-19T10:50:16;18.30;;;15.00;;
28509;SDS011;15723;55.684;37.928;2022-10-19T10:52:59;20.33;;;12.43;;
28509;SDS011;15723;55.684;37.928;2022-10-19T10:55:30;16.25;;;13.20;;
28509;SDS011;15723;55.684;37.928;2022-10-19T10:58:17;12.65;;;10.35;;
28509;SDS011;15723;55.684;37.928;2022-10-19T11:00:58;14.43;;;10.70;;
28509;SDS011;15723;55.684;37.928;2022-10-19T11:03:29;16.02;;;11.05;;
28509;SDS011;15723;55.684;37.928;2022-10-19T11:06:00;14.65;;;10.70;;
28509;SDS011;15723;55.684;37.928;2022-10-19T11:08:32;17.25;;;11.85;;
28509;SDS011;15723;55.684;37.928;2022-10-19T11:11:03;16.08;;;11.32;;
28509;SDS011;15723;55.684;37.928;2022-10-19T11:16:18;15.43;;;10.00;;
28509;SDS011;15723;55.684;37.928;2022-10-19T11:18:54;15.38;;;11.38;;
28509;SDS011;15723;55.684;37.928;2022-10-19T11:21:43;16.42;;;11.55;;
28509;SDS011;15723;55.684;37.928;2022-10-19T11:24:34;16.63;;;12.18;;
28509;SDS011;15723;55.684;37.928;2022-10-19T11:27:27;15.20;;;12.45;;
28509;SDS011;15723;55.684;37.928;2022-10-19T11:30:19;14.85;;;10.90;;
28509;SDS011;15723;55.684;37.928;2022-10-19T11:40:51;14.50;;;8.65;;
28509;SDS011;15723;55.684;37.928;2022-10-19T11:46:18;8.70;;;6.80;;
28509;SDS011;15723;55.684;37.928;2022-10-19T11:51:45;11.00;;;7.55;;
28509;SDS011;15723;55.684;37.928;2022-10-19T11:54:25;12.57;;;8.15;;
28509;SDS011;15723;55.684;37.928;2022-10-19T12:10:39;11.32;;;6.53;;
28509;SDS011;15723;55.684;37.928;2022-10-19T12:13:17;8.00;;;5.60;;
28509;SDS011;15723;55.684;37.928;2022-10-19T12:15:50;7.05;;;5.72;;
28509;SDS011;15723;55.684;37.928;2022-10-19T12:21:26;13.35;;;6.55;;
28509;SDS011;15723;55.684;37.928;2022-10-19T12:23:56;14.55;;;7.78;;
28509;SDS011;15723;55.684;37.928;2022-10-19T12:26:25;11.70;;;7.38;;
28509;SDS011;15723;55.684;37.928;2022-10-19T12:29:10;18.98;;;7.38;;
28509;SDS011;15723;55.684;37.928;2022-10-19T12:31:40;9.32;;;6.38;;
28509;SDS011;15723;55.684;37.928;2022-10-19T12:34:29;8.50;;;6.03;;
28509;SDS011;15723;55.684;37.928;2022-10-19T12:47:31;10.63;;;6.38;;
28509;SDS011;15723;55.684;37.928;2022-10-19T12:49:57;9.73;;;6.88;;
28509;SDS011;15723;55.684;37.928;2022-10-19T12:52:34;13.32;;;6.55;;
28509;SDS011;15723;55.684;37.928;2022-10-19T12:57:55;9.00;;;6.18;;
28509;SDS011;15723;55.684;37.928;2022-10-19T13:00:29;16.15;;;6.13;;
28509;SDS011;15723;55.684;37.928;2022-10-19T13:03:00;7.35;;;6.20;;
28509;SDS011;15723;55.684;37.928;2022-10-19T13:05:30;6.95;;;5.07;;
28509;SDS011;15723;55.684;37.928;2022-10-19T13:07:57;6.15;;;5.07;;
28509;SDS011;15723;55.684;37.928;2022-10-19T13:10:26;8.63;;;5.72;;
28509;SDS011;15723;55.684;37.928;2022-10-19T13:12:54;9.57;;;6.72;;
28509;SDS011;15723;55.684;37.928;2022-10-19T13:17:59;6.20;;;5.05;;
28509;SDS011;15723;55.684;37.928;2022-10-19T13:25:37;7.57;;;5.82;;
28509;SDS011;15723;55.684;37.928;2022-10-19T13:40:58;9.07;;;6.93;;
28509;SDS011;15723;55.684;37.928;2022-10-19T13:43:37;10.32;;;6.45;;
28509;SDS011;15723;55.684;37.928;2022-10-19T14:01:14;14.55;;;8.40;;
28509;SDS011;15723;55.684;37.928;2022-10-19T14:03:44;14.27;;;9.13;;
28509;SDS011;15723;55.684;37.928;2022-10-19T14:06:33;14.90;;;9.25;;
28509;SDS011;15723;55.684;37.928;2022-10-19T14:11:47;16.58;;;9.52;;
28509;SDS011;15723;55.684;37.928;2022-10-19T14:14:20;12.55;;;8.85;;
28509;SDS011;15723;55.684;37.928;2022-10-19T14:16:52;18.45;;;8.85;;
28509;SDS011;15723;55.684;37.928;2022-10-19T14:19:23;13.75;;;8.70;;
28509;SDS011;15723;55.684;37.928;2022-10-19T14:25:05;11.65;;;8.50;;
28509;SDS011;15723;55.684;37.928;2022-10-19T14:27:41;11.63;;;8.88;;
28509;SDS011;15723;55.684;37.928;2022-10-19T14:30:40;14.20;;;9.68;;
28509;SDS011;15723;55.684;37.928;2022-10-19T14:33:05;13.80;;;9.88;;
28509;SDS011;15723;55.684;37.928;2022-10-19T14:35:34;13.35;;;10.10;;
28509;SDS011;15723;55.684;37.928;2022-10-19T14:38:06;14.50;;;10.15;;
28509;SDS011;15723;55.684;37.928;2022-10-19T14:40:36;12.85;;;9.90;;
28509;SDS011;15723;55.684;37.928;2022-10-19T14:43:38;15.95;;;10.65;;
28509;SDS011;15723;55.684;37.928;2022-10-19T14:48:43;15.80;;;10.93;;
28509;SDS011;15723;55.684;37.928;2022-10-19T14:51:26;15.27;;;10.60;;
28509;SDS011;15723;55.684;37.928;2022-10-19T14:56:27;16.05;;;12.45;;
28509;SDS011;15723;55.684;37.928;2022-10-19T14:59:06;18.88;;;12.25;;
28509;SDS011;15723;55.684;37.928;2022-10-19T15:01:48;15.50;;;11.85;;
28509;SDS011;15723;55.684;37.928;2022-10-19T15:04:18;18.70;;;12.07;;
28509;SDS011;15723;55.684;37.928;2022-10-19T15:06:47;19.45;;;12.60;;
28509;SDS011;15723;55.684;37.928;2022-10-19T15:09:33;16.77;;;12.23;;
28509;SDS011;15723;55.684;37.928;2022-10-19T15:12:05;22.42;;;13.40;;
28509;SDS011;15723;55.684;37.928;2022-10-19T15:14:33;18.60;;;12.88;;
28509;SDS011;15723;55.684;37.928;2022-10-19T15:17:14;17.50;;;10.23;;
28509;SDS011;15723;55.684;37.928;2022-10-19T15:20:15;16.63;;;9.45;;
28509;SDS011;15723;55.684;37.928;2022-10-19T15:22:49;14.65;;;9.07;;
28509;SDS011;15723;55.684;37.928;2022-10-19T15:25:22;17.67;;;8.88;;
28509;SDS011;15723;55.684;37.928;2022-10-19T15:27:52;13.35;;;7.82;;
28509;SDS011;15723;55.684;37.928;2022-10-19T15:35:28;14.05;;;7.55;;
28509;SDS011;15723;55.684;37.928;2022-10-19T15:40:31;7.32;;;5.57;;
28509;SDS011;15723;55.684;37.928;2022-10-19T15:43:22;15.25;;;6.45;;
28509;SDS011;15723;55.684;37.928;2022-10-19T15:45:58;13.70;;;5.80;;
28509;SDS011;15723;55.684;37.928;2022-10-19T15:48:26;6.85;;;4.93;;
28509;SDS011;15723;55.684;37.928;2022-10-19T15:51:50;8.85;;;5.53;;
28509;SDS011;15723;55.684;37.928;2022-10-19T15:53:55;9.75;;;5.95;;
28509;SDS011;15723;55.684;37.928;2022-10-19T15:56:25;11.40;;;5.22;;
28509;SDS011;15723;55.684;37.928;2022-10-19T15:58:54;13.43;;;5.80;;
28509;SDS011;15723;55.684;37.928;2022-10-19T16:01:28;8.95;;;5.57;;
28509;SDS011;15723;55.684;37.928;2022-10-19T16:03:56;7.90;;;5.18;;
28509;SDS011;15723;55.684;37.928;2022-10-19T16:06:27;7.03;;;5.43;;
28509;SDS011;15723;55.684;37.928;2022-10-19T16:08:55;8.35;;;5.57;;
28509;SDS011;15723;55.684;37.928;2022-10-19T16:11:23;12.80;;;7.32;;
28509;SDS011;15723;55.684;37.928;2022-10-19T16:13:50;10.77;;;6.68;;
28509;SDS011;15723;55.684;37.928;2022-10-19T16:18:53;13.93;;;9.82;;
28509;SDS011;15723;55.684;37.928;2022-10-19T16:21:21;14.80;;;9.85;;
28509;SDS011;15723;55.684;37.928;2022-10-19T16:23:53;12.00;;;8.17;;
28509;SDS011;15723;55.684;37.928;2022-10-19T16:26:19;10.88;;;8.23;;
28509;SDS011;15723;55.684;37.928;2022-10-19T16:28:46;8.52;;;7.63;;
28509;SDS011;15723;55.684;37.928;2022-10-19T16:31:13;11.35;;;8.43;;
28509;SDS011;15723;55.684;37.928;2022-10-19T16:33:39;11.07;;;8.05;;
28509;SDS011;15723;55.684;37.928;2022-10-19T16:36:06;12.85;;;8.20;;
28509;SDS011;15723;55.684;37.928;2022-10-19T16:38:33;13.52;;;7.22;;
28509;SDS011;15723;55.684;37.928;2022-10-19T16:41:01;10.70;;;6.68;;
28509;SDS011;15723;55.684;37.928;2022-10-19T16:43:32;7.07;;;5.55;;
28509;SDS011;15723;55.684;37.928;2022-10-19T16:45:58;10.60;;;6.32;;
28509;SDS011;15723;55.684;37.928;2022-10-19T16:48:25;7.35;;;5.18;;
28509;SDS011;15723;55.684;37.928;2022-10-19T16:51:14;26.35;;;6.13;;
28509;SDS011;15723;55.684;37.928;2022-10-19T16:53:50;11.57;;;7.03;;
28509;SDS011;15723;55.684;37.928;2022-10-19T16:56:17;10.48;;;6.22;;
28509;SDS011;15723;55.684;37.928;2022-10-19T16:58:44;9.85;;;7.57;;
28509;SDS011;15723;55.684;37.928;2022-10-19T17:01:17;9.07;;;6.68;;
28509;SDS011;15723;55.684;37.928;2022-10-19T17:03:44;11.93;;;8.00;;
28509;SDS011;15723;55.684;37.928;2022-10-19T17:06:12;9.88;;;7.68;;
28509;SDS011;15723;55.684;37.928;2022-10-19T17:08:39;11.23;;;7.05;;
28509;SDS011;15723;55.684;37.928;2022-10-19T17:11:09;8.93;;;6.85;;
28509;SDS011;15723;55.684;37.928;2022-10-19T17:13:40;12.60;;;7.80;;
28509;SDS011;15723;55.684;37.928;2022-10-19T17:16:07;10.68;;;6.63;;
28509;SDS011;15723;55.684;37.928;2022-10-19T17:18:34;16.38;;;6.47;;
28509;SDS011;15723;55.684;37.928;2022-10-19T17:21:05;10.20;;;6.05;;
28509;SDS011;15723;55.684;37.928;2022-10-19T17:23:33;10.93;;;5.95;;
28509;SDS011;15723;55.684;37.928;2022-10-19T17:26:00;8.15;;;5.45;;
28509;SDS011;15723;55.684;37.928;2022-10-19T17:28:27;9.02;;;4.82;;
28509;SDS011;15723;55.684;37.928;2022-10-19T17:30:53;11.07;;;5.72;;
28509;SDS011;15723;55.684;37.928;2022-10-19T17:33:22;8.73;;;5.43;;